sensor_id;sensor_type;location;lat;lon;timestamp;temperature;humidity
6206;DHT22;3136;48.788;9.772;2023-06-01T00:02:13;11.10;99.90
6206;DHT22;3136;48.788;9.772;2023-06-01T00:04:39;11.10;99.90
6206;DHT22;3136;48.788;9.772;2023-06-01T00:07:09;11.10;99.90
6206;DHT22;3136;48.788;9.772;2023-06-01T00:09:36;11.30;99.90
6206;DHT22;3136;48.788;9.772;2023-06-01T00:12:02;11.00;1.00
6206;DHT22;3136;48.788;9.772;2023-06-01T00:14:28;11.10;1.00
6206;DHT22;3136;48.788;9.772;2023-06-01T00:16:53;11.10;1.00
6206;DHT22;3136;48.788;9.772;2023-06-01T00:19:21;11.00;1.00
6206;DHT22;3136;48.788;9.772;2023-06-01T00:21:47;11.20;1.00
6206;DHT22;3136;48.788;9.772;2023-06-01T00:24:13;11.40;1.00
6206;DHT22;3136;48.788;9.772;2023-06-01T00:26:38;11.20;1.00
6206;DHT22;3136;48.788;9.772;2023-06-01T00:29:04;10.90;1.00
6206;DHT22;3136;48.788;9.772;2023-06-01T00:31:29;10.90;1.00
6206;DHT22;3136;48.788;9.772;2023-06-01T00:33:55;10.80;1.00
6206;DHT22;3136;48.788;9.772;2023-06-01T00:36:21;10.80;1.00
6206;DHT22;3136;48.788;9.772;2023-06-01T00:38:46;10.70;1.00
6206;DHT22;3136;48.788;9.772;2023-06-01T00:41:12;10.70;1.00
6206;DHT22;3136;48.788;9.772;2023-06-01T00:43:37;10.60;1.00
6206;DHT22;3136;48.788;9.772;2023-06-01T00:46:03;10.60;52.10
6206;DHT22;3136;48.788;9.772;2023-06-01T00:48:29;10.60;99.90
6206;DHT22;3136;48.788;9.772;2023-06-01T00:50:55;10.50;99.90
6206;DHT22;3136;48.788;9.772;2023-06-01T00:53:22;10.70;99.90
6206;DHT22;3136;48.788;9.772;2023-06-01T00:55:49;10.50;99.90
6206;DHT22;3136;48.788;9.772;2023-06-01T00:58:15;10.50;99.90
6206;DHT22;3136;48.788;9.772;2023-06-01T01:00:41;10.40;99.90
6206;DHT22;3136;48.788;9.772;2023-06-01T01:03:07;10.40;1.00
6206;DHT22;3136;48.788;9.772;2023-06-01T01:05:37;10.40;1.00
6206;DHT22;3136;48.788;9.772;2023-06-01T01:11:01;10.30;1.00
6206;DHT22;3136;48.788;9.772;2023-06-01T01:13:48;10.30;1.00
6206;DHT22;3136;48.788;9.772;2023-06-01T01:27:49;10.10;99.90
6206;DHT22;3136;48.788;9.772;2023-06-01T01:30:22;10.10;99.90
6206;DHT22;3136;48.788;9.772;2023-06-01T01:32:53;10.10;99.90
6206;DHT22;3136;48.788;9.772;2023-06-01T01:35:20;10.00;99.90
6206;DHT22;3136;48.788;9.772;2023-06-01T01:37:53;10.10;99.90
6206;DHT22;3136;48.788;9.772;2023-06-01T01:40:19;10.00;99.90
6206;DHT22;3136;48.788;9.772;2023-06-01T01:42:45;10.00;1.00
6206;DHT22;3136;48.788;9.772;2023-06-01T01:45:11;10.00;1.00
6206;DHT22;3136;48.788;9.772;2023-06-01T01:47:44;10.00;1.00
6206;DHT22;3136;48.788;9.772;2023-06-01T01:50:15;10.00;1.00
6206;DHT22;3136;48.788;9.772;2023-06-01T01:52:44;10.00;1.00
6206;DHT22;3136;48.788;9.772;2023-06-01T01:55:11;9.90;1.00
6206;DHT22;3136;48.788;9.772;2023-06-01T01:57:38;9.90;1.00
6206;DHT22;3136;48.788;9.772;2023-06-01T02:00:05;9.90;1.00
6206;DHT22;3136;48.788;9.772;2023-06-01T02:02:31;9.80;1.00
6206;DHT22;3136;48.788;9.772;2023-06-01T02:04:57;9.80;1.00
6206;DHT22;3136;48.788;9.772;2023-06-01T02:07:23;9.80;1.00
6206;DHT22;3136;48.788;9.772;2023-06-01T02:09:48;9.70;46.40
6206;DHT22;3136;48.788;9.772;2023-06-01T02:12:14;9.70;99.90
6206;DHT22;3136;48.788;9.772;2023-06-01T02:14:40;9.70;99.90
6206;DHT22;3136;48.788;9.772;2023-06-01T02:17:06;9.70;99.90
6206;DHT22;3136;48.788;9.772;2023-06-01T02:19:32;9.70;1.00
6206;DHT22;3136;48.788;9.772;2023-06-01T02:21:58;9.70;1.00
6206;DHT22;3136;48.788;9.772;2023-06-01T02:24:24;9.70;1.00
6206;DHT22;3136;48.788;9.772;2023-06-01T02:26:49;9.60;1.00
6206;DHT22;3136;48.788;9.772;2023-06-01T02:29:19;9.60;1.00
6206;DHT22;3136;48.788;9.772;2023-06-01T02:31:50;9.60;1.00
6206;DHT22;3136;48.788;9.772;2023-06-01T02:34:16;9.60;73.80
6206;DHT22;3136;48.788;9.772;2023-06-01T02:36:42;9.60;99.90
6206;DHT22;3136;48.788;9.772;2023-06-01T02:39:08;9.60;99.90
6206;DHT22;3136;48.788;9.772;2023-06-01T02:41:34;9.50;99.90
6206;DHT22;3136;48.788;9.772;2023-06-01T02:43:59;9.50;99.90
6206;DHT22;3136;48.788;9.772;2023-06-01T02:46:25;9.50;1.00
6206;DHT22;3136;48.788;9.772;2023-06-01T02:48:51;9.50;1.00
6206;DHT22;3136;48.788;9.772;2023-06-01T02:51:18;9.40;1.00
6206;DHT22;3136;48.788;9.772;2023-06-01T02:53:44;9.40;1.00
6206;DHT22;3136;48.788;9.772;2023-06-01T02:56:12;9.40;28.90
6206;DHT22;3136;48.788;9.772;2023-06-01T02:58:37;9.40;35.60
6206;DHT22;3136;48.788;9.772;2023-06-01T03:01:03;9.50;99.90
6206;DHT22;3136;48.788;9.772;2023-06-01T03:03:29;9.40;99.90
6206;DHT22;3136;48.788;9.772;2023-06-01T03:05:54;9.40;99.90
6206;DHT22;3136;48.788;9.772;2023-06-01T03:08:20;9.30;99.90
6206;DHT22;3136;48.788;9.772;2023-06-01T03:10:46;9.30;1.00
6206;DHT22;3136;48.788;9.772;2023-06-01T03:13:12;9.30;1.00
6206;DHT22;3136;48.788;9.772;2023-06-01T03:15:38;9.20;1.00
6206;DHT22;3136;48.788;9.772;2023-06-01T03:18:04;9.20;96.50
6206;DHT22;3136;48.788;9.772;2023-06-01T03:20:31;9.20;99.90
6206;DHT22;3136;48.788;9.772;2023-06-01T03:22:57;9.20;1.00
6206;DHT22;3136;48.788;9.772;2023-06-01T03:25:22;9.20;1.00
6206;DHT22;3136;48.788;9.772;2023-06-01T03:27:50;9.20;1.00
6206;DHT22;3136;48.788;9.772;2023-06-01T03:30:15;9.10;1.00
6206;DHT22;3136;48.788;9.772;2023-06-01T03:32:42;9.10;1.00
6206;DHT22;3136;48.788;9.772;2023-06-01T03:35:09;9.10;1.00
6206;DHT22;3136;48.788;9.772;2023-06-01T03:37:36;9.00;6.80
6206;DHT22;3136;48.788;9.772;2023-06-01T03:40:02;9.00;99.90
6206;DHT22;3136;48.788;9.772;2023-06-01T03:42:37;9.00;99.90
6206;DHT22;3136;48.788;9.772;2023-06-01T03:45:03;9.00;99.90
6206;DHT22;3136;48.788;9.772;2023-06-01T03:47:30;9.10;1.00
6206;DHT22;3136;48.788;9.772;2023-06-01T03:49:55;9.10;1.00
6206;DHT22;3136;48.788;9.772;2023-06-01T03:52:23;9.10;1.00
6206;DHT22;3136;48.788;9.772;2023-06-01T03:54:48;9.10;1.00
6206;DHT22;3136;48.788;9.772;2023-06-01T03:57:14;9.10;1.00
6206;DHT22;3136;48.788;9.772;2023-06-01T03:59:39;9.10;1.00
6206;DHT22;3136;48.788;9.772;2023-06-01T04:02:06;9.10;99.90
6206;DHT22;3136;48.788;9.772;2023-06-01T04:04:35;9.10;99.90
6206;DHT22;3136;48.788;9.772;2023-06-01T04:07:01;9.20;99.90
6206;DHT22;3136;48.788;9.772;2023-06-01T04:09:31;9.20;99.90
6206;DHT22;3136;48.788;9.772;2023-06-01T04:11:57;9.20;4.50
6206;DHT22;3136;48.788;9.772;2023-06-01T04:14:22;9.20;1.00
6206;DHT22;3136;48.788;9.772;2023-06-01T04:16:48;9.30;1.00
6206;DHT22;3136;48.788;9.772;2023-06-01T04:19:13;9.30;99.90
6206;DHT22;3136;48.788;9.772;2023-06-01T04:21:39;9.30;87.90
6206;DHT22;3136;48.788;9.772;2023-06-01T04:24:05;9.40;1.00
6206;DHT22;3136;48.788;9.772;2023-06-01T04:26:31;9.40;1.00
6206;DHT22;3136;48.788;9.772;2023-06-01T04:29:01;9.40;1.00
6206;DHT22;3136;48.788;9.772;2023-06-01T04:31:28;9.50;1.00
6206;DHT22;3136;48.788;9.772;2023-06-01T04:33:54;9.60;1.00
6206;DHT22;3136;48.788;9.772;2023-06-01T04:36:22;9.60;1.00
6206;DHT22;3136;48.788;9.772;2023-06-01T04:38:48;9.80;1.00
6206;DHT22;3136;48.788;9.772;2023-06-01T04:41:18;9.80;1.00
6206;DHT22;3136;48.788;9.772;2023-06-01T04:43:46;9.90;1.00
6206;DHT22;3136;48.788;9.772;2023-06-01T04:46:17;10.00;1.00
6206;DHT22;3136;48.788;9.772;2023-06-01T04:48:43;10.20;1.00
6206;DHT22;3136;48.788;9.772;2023-06-01T04:51:10;10.30;99.90
6206;DHT22;3136;48.788;9.772;2023-06-01T04:53:36;10.40;1.00
6206;DHT22;3136;48.788;9.772;2023-06-01T04:56:01;10.60;1.00
6206;DHT22;3136;48.788;9.772;2023-06-01T04:58:27;10.60;99.90
6206;DHT22;3136;48.788;9.772;2023-06-01T05:00:52;10.70;96.50
6206;DHT22;3136;48.788;9.772;2023-06-01T05:03:19;11.40;1.00
6206;DHT22;3136;48.788;9.772;2023-06-01T05:05:45;10.80;1.00
6206;DHT22;3136;48.788;9.772;2023-06-01T05:08:10;10.90;66.50
6206;DHT22;3136;48.788;9.772;2023-06-01T05:10:37;11.10;1.00
6206;DHT22;3136;48.788;9.772;2023-06-01T05:13:02;11.10;99.90
6206;DHT22;3136;48.788;9.772;2023-06-01T05:15:28;11.20;1.00
6206;DHT22;3136;48.788;9.772;2023-06-01T05:17:56;11.30;99.90
6206;DHT22;3136;48.788;9.772;2023-06-01T05:20:21;11.40;99.90
6206;DHT22;3136;48.788;9.772;2023-06-01T05:22:47;11.50;99.90
6206;DHT22;3136;48.788;9.772;2023-06-01T05:25:12;11.60;32.60
6206;DHT22;3136;48.788;9.772;2023-06-01T05:27:38;11.70;1.00
6206;DHT22;3136;48.788;9.772;2023-06-01T05:30:04;11.80;1.00
6206;DHT22;3136;48.788;9.772;2023-06-01T05:32:31;11.90;99.90
6206;DHT22;3136;48.788;9.772;2023-06-01T05:34:56;12.00;1.00
6206;DHT22;3136;48.788;9.772;2023-06-01T05:37:22;12.10;99.90
6206;DHT22;3136;48.788;9.772;2023-06-01T05:39:47;12.20;99.90
6206;DHT22;3136;48.788;9.772;2023-06-01T05:42:13;12.30;1.00
6206;DHT22;3136;48.788;9.772;2023-06-01T05:44:38;11.90;1.00
6206;DHT22;3136;48.788;9.772;2023-06-01T05:47:04;12.50;1.00
6206;DHT22;3136;48.788;9.772;2023-06-01T05:49:30;12.60;99.90
6206;DHT22;3136;48.788;9.772;2023-06-01T05:51:57;12.70;99.90
6206;DHT22;3136;48.788;9.772;2023-06-01T05:54:23;12.80;1.00
6206;DHT22;3136;48.788;9.772;2023-06-01T05:56:49;12.90;1.00
6206;DHT22;3136;48.788;9.772;2023-06-01T05:59:14;13.00;1.00
6206;DHT22;3136;48.788;9.772;2023-06-01T06:01:40;13.10;1.00
6206;DHT22;3136;48.788;9.772;2023-06-01T06:04:07;13.30;1.00
6206;DHT22;3136;48.788;9.772;2023-06-01T06:06:33;13.40;1.00
6206;DHT22;3136;48.788;9.772;2023-06-01T06:08:58;13.50;1.00
6206;DHT22;3136;48.788;9.772;2023-06-01T06:11:24;13.60;1.00
6206;DHT22;3136;48.788;9.772;2023-06-01T06:13:51;13.80;1.00
6206;DHT22;3136;48.788;9.772;2023-06-01T06:16:16;13.90;1.00
6206;DHT22;3136;48.788;9.772;2023-06-01T06:18:42;14.10;99.90
6206;DHT22;3136;48.788;9.772;2023-06-01T06:21:07;14.20;99.90
6206;DHT22;3136;48.788;9.772;2023-06-01T06:23:33;14.50;99.90
6206;DHT22;3136;48.788;9.772;2023-06-01T06:25:59;14.60;99.90
6206;DHT22;3136;48.788;9.772;2023-06-01T06:28:24;14.60;99.90
6206;DHT22;3136;48.788;9.772;2023-06-01T06:30:51;14.80;99.90
6206;DHT22;3136;48.788;9.772;2023-06-01T06:33:17;14.90;99.90
6206;DHT22;3136;48.788;9.772;2023-06-01T06:35:43;15.10;99.90
6206;DHT22;3136;48.788;9.772;2023-06-01T06:38:09;15.30;99.90
6206;DHT22;3136;48.788;9.772;2023-06-01T06:40:35;15.40;99.90
6206;DHT22;3136;48.788;9.772;2023-06-01T06:43:00;15.40;99.90
6206;DHT22;3136;48.788;9.772;2023-06-01T06:45:26;15.60;99.90
6206;DHT22;3136;48.788;9.772;2023-06-01T06:47:52;15.70;99.90
6206;DHT22;3136;48.788;9.772;2023-06-01T06:50:17;15.90;99.90
6206;DHT22;3136;48.788;9.772;2023-06-01T06:52:43;16.00;99.90
6206;DHT22;3136;48.788;9.772;2023-06-01T06:55:09;16.10;99.90
6206;DHT22;3136;48.788;9.772;2023-06-01T06:57:34;16.20;99.90
6206;DHT22;3136;48.788;9.772;2023-06-01T07:00:01;16.40;99.90
6206;DHT22;3136;48.788;9.772;2023-06-01T07:02:28;16.50;99.90
6206;DHT22;3136;48.788;9.772;2023-06-01T07:04:54;16.60;99.90
6206;DHT22;3136;48.788;9.772;2023-06-01T07:07:20;16.80;99.90
6206;DHT22;3136;48.788;9.772;2023-06-01T07:09:45;16.90;99.90
6206;DHT22;3136;48.788;9.772;2023-06-01T07:12:11;17.10;99.90
6206;DHT22;3136;48.788;9.772;2023-06-01T07:14:37;17.30;99.90
6206;DHT22;3136;48.788;9.772;2023-06-01T07:17:03;17.40;99.90
6206;DHT22;3136;48.788;9.772;2023-06-01T07:19:28;17.50;99.90
6206;DHT22;3136;48.788;9.772;2023-06-01T07:22:01;17.70;99.90
6206;DHT22;3136;48.788;9.772;2023-06-01T07:24:27;17.70;99.90
6206;DHT22;3136;48.788;9.772;2023-06-01T07:26:53;18.60;99.90
6206;DHT22;3136;48.788;9.772;2023-06-01T07:29:20;17.90;99.90
6206;DHT22;3136;48.788;9.772;2023-06-01T07:31:46;18.50;98.90
6206;DHT22;3136;48.788;9.772;2023-06-01T07:34:12;18.10;97.00
6206;DHT22;3136;48.788;9.772;2023-06-01T07:36:37;18.30;97.40
6206;DHT22;3136;48.788;9.772;2023-06-01T07:39:04;18.40;96.20
6206;DHT22;3136;48.788;9.772;2023-06-01T07:41:34;18.50;95.70
6206;DHT22;3136;48.788;9.772;2023-06-01T07:44:00;18.60;90.80
6206;DHT22;3136;48.788;9.772;2023-06-01T07:46:25;18.70;93.10
6206;DHT22;3136;48.788;9.772;2023-06-01T07:48:51;18.90;93.30
6206;DHT22;3136;48.788;9.772;2023-06-01T07:51:17;19.10;93.70
6206;DHT22;3136;48.788;9.772;2023-06-01T07:53:42;19.10;87.00
6206;DHT22;3136;48.788;9.772;2023-06-01T07:56:08;19.30;86.60
6206;DHT22;3136;48.788;9.772;2023-06-01T07:58:34;19.80;99.60
6206;DHT22;3136;48.788;9.772;2023-06-01T08:00:59;19.60;86.80
6206;DHT22;3136;48.788;9.772;2023-06-01T08:03:25;19.70;88.30
6206;DHT22;3136;48.788;9.772;2023-06-01T08:05:51;19.80;87.40
6206;DHT22;3136;48.788;9.772;2023-06-01T08:08:23;20.00;90.40
6206;DHT22;3136;48.788;9.772;2023-06-01T08:10:49;20.10;86.00
6206;DHT22;3136;48.788;9.772;2023-06-01T08:13:15;20.20;82.50
6206;DHT22;3136;48.788;9.772;2023-06-01T08:15:40;20.30;79.60
6206;DHT22;3136;48.788;9.772;2023-06-01T08:18:08;20.80;77.00
6206;DHT22;3136;48.788;9.772;2023-06-01T08:20:34;20.50;80.10
6206;DHT22;3136;48.788;9.772;2023-06-01T08:23:01;20.60;79.10
6206;DHT22;3136;48.788;9.772;2023-06-01T08:25:28;20.60;75.70
6206;DHT22;3136;48.788;9.772;2023-06-01T08:27:54;20.70;73.70
6206;DHT22;3136;48.788;9.772;2023-06-01T08:30:19;20.90;71.70
6206;DHT22;3136;48.788;9.772;2023-06-01T08:32:45;21.00;73.80
6206;DHT22;3136;48.788;9.772;2023-06-01T08:35:11;21.10;73.30
6206;DHT22;3136;48.788;9.772;2023-06-01T08:37:38;21.20;70.80
6206;DHT22;3136;48.788;9.772;2023-06-01T08:40:04;21.30;70.20
6206;DHT22;3136;48.788;9.772;2023-06-01T08:45:25;21.50;71.80
6206;DHT22;3136;48.788;9.772;2023-06-01T08:47:53;21.60;69.20
6206;DHT22;3136;48.788;9.772;2023-06-01T08:50:20;21.80;68.10
6206;DHT22;3136;48.788;9.772;2023-06-01T08:52:46;21.90;66.30
6206;DHT22;3136;48.788;9.772;2023-06-01T08:55:14;22.00;66.60
6206;DHT22;3136;48.788;9.772;2023-06-01T08:57:42;22.10;68.30
6206;DHT22;3136;48.788;9.772;2023-06-01T09:00:10;22.20;66.70
6206;DHT22;3136;48.788;9.772;2023-06-01T09:02:37;22.30;66.30
6206;DHT22;3136;48.788;9.772;2023-06-01T09:05:02;22.40;64.10
6206;DHT22;3136;48.788;9.772;2023-06-01T09:07:29;22.40;64.20
6206;DHT22;3136;48.788;9.772;2023-06-01T09:09:56;22.50;63.10
6206;DHT22;3136;48.788;9.772;2023-06-01T09:12:24;22.70;62.60
6206;DHT22;3136;48.788;9.772;2023-06-01T09:17:36;22.90;59.80
6206;DHT22;3136;48.788;9.772;2023-06-01T09:20:02;23.10;59.10
6206;DHT22;3136;48.788;9.772;2023-06-01T09:22:45;23.10;84.80
6206;DHT22;3136;48.788;9.772;2023-06-01T09:25:12;23.20;59.10
6206;DHT22;3136;48.788;9.772;2023-06-01T09:27:47;23.30;58.10
6206;DHT22;3136;48.788;9.772;2023-06-01T09:30:15;23.20;58.00
6206;DHT22;3136;48.788;9.772;2023-06-01T09:32:41;23.40;57.90
6206;DHT22;3136;48.788;9.772;2023-06-01T09:35:08;23.50;56.20
6206;DHT22;3136;48.788;9.772;2023-06-01T09:37:36;23.60;56.40
6206;DHT22;3136;48.788;9.772;2023-06-01T09:40:02;23.70;54.50
6206;DHT22;3136;48.788;9.772;2023-06-01T09:42:33;23.80;55.90
6206;DHT22;3136;48.788;9.772;2023-06-01T09:45:14;23.80;55.60
6206;DHT22;3136;48.788;9.772;2023-06-01T09:47:41;24.00;52.70
6206;DHT22;3136;48.788;9.772;2023-06-01T09:50:07;24.10;53.70
6206;DHT22;3136;48.788;9.772;2023-06-01T09:52:32;24.20;78.40
6206;DHT22;3136;48.788;9.772;2023-06-01T09:55:05;24.30;76.50
6206;DHT22;3136;48.788;9.772;2023-06-01T09:57:30;24.40;52.40
6206;DHT22;3136;48.788;9.772;2023-06-01T09:59:57;24.50;51.00
6206;DHT22;3136;48.788;9.772;2023-06-01T10:02:24;24.60;50.10
6206;DHT22;3136;48.788;9.772;2023-06-01T10:04:56;24.70;50.80
6206;DHT22;3136;48.788;9.772;2023-06-01T10:07:31;24.70;49.10
6206;DHT22;3136;48.788;9.772;2023-06-01T10:09:59;24.80;70.20
6206;DHT22;3136;48.788;9.772;2023-06-01T10:12:28;24.80;48.00
6206;DHT22;3136;48.788;9.772;2023-06-01T10:14:55;24.80;49.80
6206;DHT22;3136;48.788;9.772;2023-06-01T10:17:21;24.90;47.40
6206;DHT22;3136;48.788;9.772;2023-06-01T10:19:48;24.90;47.80
6206;DHT22;3136;48.788;9.772;2023-06-01T10:22:14;25.00;48.40
6206;DHT22;3136;48.788;9.772;2023-06-01T10:24:40;25.10;48.30
6206;DHT22;3136;48.788;9.772;2023-06-01T10:27:35;25.20;44.60
6206;DHT22;3136;48.788;9.772;2023-06-01T10:30:07;25.30;46.00
6206;DHT22;3136;48.788;9.772;2023-06-01T10:35:03;25.30;42.70
6206;DHT22;3136;48.788;9.772;2023-06-01T10:37:28;25.40;44.50
6206;DHT22;3136;48.788;9.772;2023-06-01T10:40:11;25.50;42.50
6206;DHT22;3136;48.788;9.772;2023-06-01T10:42:44;25.90;41.50
6206;DHT22;3136;48.788;9.772;2023-06-01T10:48:10;27.60;39.60
6206;DHT22;3136;48.788;9.772;2023-06-01T10:50:37;28.30;37.00
6206;DHT22;3136;48.788;9.772;2023-06-01T10:53:29;28.90;37.70
6206;DHT22;3136;48.788;9.772;2023-06-01T10:58:42;29.60;37.10
6206;DHT22;3136;48.788;9.772;2023-06-01T11:01:08;29.60;35.40
6206;DHT22;3136;48.788;9.772;2023-06-01T11:03:45;29.50;36.80
6206;DHT22;3136;48.788;9.772;2023-06-01T11:06:31;29.40;33.90
6206;DHT22;3136;48.788;9.772;2023-06-01T11:09:00;29.50;36.60
6206;DHT22;3136;48.788;9.772;2023-06-01T11:14:17;29.90;34.40
6206;DHT22;3136;48.788;9.772;2023-06-01T11:16:43;30.10;35.30
6206;DHT22;3136;48.788;9.772;2023-06-01T11:19:10;30.10;34.10
6206;DHT22;3136;48.788;9.772;2023-06-01T11:21:41;30.00;32.90
6206;DHT22;3136;48.788;9.772;2023-06-01T11:24:12;30.30;32.50
6206;DHT22;3136;48.788;9.772;2023-06-01T11:26:48;30.80;34.20
6206;DHT22;3136;48.788;9.772;2023-06-01T11:29:24;32.20;33.60
6206;DHT22;3136;48.788;9.772;2023-06-01T11:31:59;31.40;32.30
6206;DHT22;3136;48.788;9.772;2023-06-01T11:34:32;32.10;32.60
6206;DHT22;3136;48.788;9.772;2023-06-01T11:37:04;32.60;33.30
6206;DHT22;3136;48.788;9.772;2023-06-01T11:39:31;33.30;32.90
6206;DHT22;3136;48.788;9.772;2023-06-01T11:42:14;33.60;32.70
6206;DHT22;3136;48.788;9.772;2023-06-01T11:44:44;33.60;31.20
6206;DHT22;3136;48.788;9.772;2023-06-01T11:47:11;33.30;31.80
6206;DHT22;3136;48.788;9.772;2023-06-01T11:49:45;33.50;29.80
6206;DHT22;3136;48.788;9.772;2023-06-01T11:52:14;33.50;31.30
6206;DHT22;3136;48.788;9.772;2023-06-01T11:54:40;33.30;30.60
6206;DHT22;3136;48.788;9.772;2023-06-01T11:57:06;33.20;28.70
6206;DHT22;3136;48.788;9.772;2023-06-01T11:59:42;33.20;29.10
6206;DHT22;3136;48.788;9.772;2023-06-01T12:02:22;33.80;29.50
6206;DHT22;3136;48.788;9.772;2023-06-01T12:05:06;34.20;28.40
6206;DHT22;3136;48.788;9.772;2023-06-01T12:07:47;34.70;28.50
6206;DHT22;3136;48.788;9.772;2023-06-01T12:10:15;34.70;27.10
6206;DHT22;3136;48.788;9.772;2023-06-01T12:12:42;34.00;27.40
6206;DHT22;3136;48.788;9.772;2023-06-01T12:15:12;33.70;26.00
6206;DHT22;3136;48.788;9.772;2023-06-01T12:17:52;33.70;25.80
6206;DHT22;3136;48.788;9.772;2023-06-01T12:22:52;34.20;27.30
6206;DHT22;3136;48.788;9.772;2023-06-01T12:25:21;34.60;26.10
6206;DHT22;3136;48.788;9.772;2023-06-01T12:28:05;35.00;26.10
6206;DHT22;3136;48.788;9.772;2023-06-01T12:30:31;34.70;25.30
6206;DHT22;3136;48.788;9.772;2023-06-01T12:32:57;34.50;25.10
6206;DHT22;3136;48.788;9.772;2023-06-01T12:35:22;34.80;25.20
6206;DHT22;3136;48.788;9.772;2023-06-01T12:38:08;34.60;24.30
6206;DHT22;3136;48.788;9.772;2023-06-01T12:40:35;35.00;24.80
6206;DHT22;3136;48.788;9.772;2023-06-01T12:43:02;35.10;23.90
6206;DHT22;3136;48.788;9.772;2023-06-01T12:45:36;35.50;24.20
6206;DHT22;3136;48.788;9.772;2023-06-01T12:48:02;35.20;26.00
6206;DHT22;3136;48.788;9.772;2023-06-01T12:50:28;35.20;22.90
6206;DHT22;3136;48.788;9.772;2023-06-01T12:52:54;35.50;23.10
6206;DHT22;3136;48.788;9.772;2023-06-01T12:55:20;35.50;22.80
6206;DHT22;3136;48.788;9.772;2023-06-01T12:57:52;35.80;22.30
6206;DHT22;3136;48.788;9.772;2023-06-01T13:00:18;35.90;22.80
6206;DHT22;3136;48.788;9.772;2023-06-01T13:02:45;36.40;22.80
6206;DHT22;3136;48.788;9.772;2023-06-01T13:05:15;36.50;21.20
6206;DHT22;3136;48.788;9.772;2023-06-01T13:07:44;36.60;21.90
6206;DHT22;3136;48.788;9.772;2023-06-01T13:10:11;36.20;20.30
6206;DHT22;3136;48.788;9.772;2023-06-01T13:12:37;35.70;20.00
6206;DHT22;3136;48.788;9.772;2023-06-01T13:15:02;35.40;18.90
6206;DHT22;3136;48.788;9.772;2023-06-01T13:17:28;35.60;20.40
6206;DHT22;3136;48.788;9.772;2023-06-01T13:19:54;35.50;20.20
6206;DHT22;3136;48.788;9.772;2023-06-01T13:22:20;35.60;19.10
6206;DHT22;3136;48.788;9.772;2023-06-01T13:24:46;35.40;19.10
6206;DHT22;3136;48.788;9.772;2023-06-01T13:27:12;34.80;17.90
6206;DHT22;3136;48.788;9.772;2023-06-01T13:29:37;34.10;18.40
6206;DHT22;3136;48.788;9.772;2023-06-01T13:32:03;33.90;17.60
6206;DHT22;3136;48.788;9.772;2023-06-01T13:34:29;33.70;17.90
6206;DHT22;3136;48.788;9.772;2023-06-01T13:36:55;33.00;17.50
6206;DHT22;3136;48.788;9.772;2023-06-01T13:39:23;32.70;17.00
6206;DHT22;3136;48.788;9.772;2023-06-01T13:41:48;32.60;17.20
6206;DHT22;3136;48.788;9.772;2023-06-01T13:44:14;32.70;17.30
6206;DHT22;3136;48.788;9.772;2023-06-01T13:46:40;32.70;17.80
6206;DHT22;3136;48.788;9.772;2023-06-01T13:49:06;32.10;16.30
6206;DHT22;3136;48.788;9.772;2023-06-01T13:51:32;31.70;15.20
6206;DHT22;3136;48.788;9.772;2023-06-01T13:53:58;30.90;16.20
6206;DHT22;3136;48.788;9.772;2023-06-01T13:56:24;30.30;17.50
6206;DHT22;3136;48.788;9.772;2023-06-01T13:58:50;29.70;15.30
6206;DHT22;3136;48.788;9.772;2023-06-01T14:01:16;29.20;17.50
6206;DHT22;3136;48.788;9.772;2023-06-01T14:03:42;28.70;17.50
6206;DHT22;3136;48.788;9.772;2023-06-01T14:06:07;28.60;17.20
6206;DHT22;3136;48.788;9.772;2023-06-01T14:08:33;28.60;17.50
6206;DHT22;3136;48.788;9.772;2023-06-01T14:10:59;28.50;16.50
6206;DHT22;3136;48.788;9.772;2023-06-01T14:13:25;28.40;17.40
6206;DHT22;3136;48.788;9.772;2023-06-01T14:15:51;28.30;16.40
6206;DHT22;3136;48.788;9.772;2023-06-01T14:18:17;28.30;17.50
6206;DHT22;3136;48.788;9.772;2023-06-01T14:20:42;28.30;16.00
6206;DHT22;3136;48.788;9.772;2023-06-01T14:23:08;28.10;16.00
6206;DHT22;3136;48.788;9.772;2023-06-01T14:25:35;28.20;15.60
6206;DHT22;3136;48.788;9.772;2023-06-01T14:28:00;28.30;16.00
6206;DHT22;3136;48.788;9.772;2023-06-01T14:30:26;28.20;17.30
6206;DHT22;3136;48.788;9.772;2023-06-01T14:32:52;28.20;16.60
6206;DHT22;3136;48.788;9.772;2023-06-01T14:35:18;28.00;16.10
6206;DHT22;3136;48.788;9.772;2023-06-01T14:37:44;27.90;16.20
6206;DHT22;3136;48.788;9.772;2023-06-01T14:40:10;27.90;17.00
6206;DHT22;3136;48.788;9.772;2023-06-01T14:42:37;27.80;17.40
6206;DHT22;3136;48.788;9.772;2023-06-01T14:45:04;27.70;17.90
6206;DHT22;3136;48.788;9.772;2023-06-01T14:47:30;27.70;17.60
6206;DHT22;3136;48.788;9.772;2023-06-01T14:49:55;27.50;17.40
6206;DHT22;3136;48.788;9.772;2023-06-01T14:52:21;27.40;16.00
6206;DHT22;3136;48.788;9.772;2023-06-01T14:54:47;27.40;17.40
6206;DHT22;3136;48.788;9.772;2023-06-01T14:57:14;27.40;19.50
6206;DHT22;3136;48.788;9.772;2023-06-01T14:59:40;27.30;17.80
6206;DHT22;3136;48.788;9.772;2023-06-01T15:02:06;27.30;18.00
6206;DHT22;3136;48.788;9.772;2023-06-01T15:04:32;27.30;16.80
6206;DHT22;3136;48.788;9.772;2023-06-01T15:06:59;27.30;17.60
6206;DHT22;3136;48.788;9.772;2023-06-01T15:09:24;27.00;16.90
6206;DHT22;3136;48.788;9.772;2023-06-01T15:11:50;27.50;17.80
6206;DHT22;3136;48.788;9.772;2023-06-01T15:14:16;27.40;17.10
6206;DHT22;3136;48.788;9.772;2023-06-01T15:16:41;27.20;18.00
6206;DHT22;3136;48.788;9.772;2023-06-01T15:19:07;27.10;17.80
6206;DHT22;3136;48.788;9.772;2023-06-01T15:21:33;27.00;17.70
6206;DHT22;3136;48.788;9.772;2023-06-01T15:23:58;26.90;17.60
6206;DHT22;3136;48.788;9.772;2023-06-01T15:26:24;26.90;17.10
6206;DHT22;3136;48.788;9.772;2023-06-01T15:28:51;26.80;18.10
6206;DHT22;3136;48.788;9.772;2023-06-01T15:31:17;26.70;16.70
6206;DHT22;3136;48.788;9.772;2023-06-01T15:33:42;26.70;17.90
6206;DHT22;3136;48.788;9.772;2023-06-01T15:36:08;26.70;17.00
6206;DHT22;3136;48.788;9.772;2023-06-01T15:38:33;26.80;17.00
6206;DHT22;3136;48.788;9.772;2023-06-01T15:41:01;26.80;17.80
6206;DHT22;3136;48.788;9.772;2023-06-01T15:43:27;26.90;17.60
6206;DHT22;3136;48.788;9.772;2023-06-01T15:45:53;26.70;17.00
6206;DHT22;3136;48.788;9.772;2023-06-01T15:48:19;26.70;17.90
6206;DHT22;3136;48.788;9.772;2023-06-01T15:50:44;26.80;18.80
6206;DHT22;3136;48.788;9.772;2023-06-01T15:53:10;26.70;19.00
6206;DHT22;3136;48.788;9.772;2023-06-01T15:55:35;26.60;19.20
6206;DHT22;3136;48.788;9.772;2023-06-01T15:58:01;26.60;18.80
6206;DHT22;3136;48.788;9.772;2023-06-01T16:00:27;26.60;18.70
6206;DHT22;3136;48.788;9.772;2023-06-01T16:02:53;26.50;18.20
6206;DHT22;3136;48.788;9.772;2023-06-01T16:05:19;26.50;17.60
6206;DHT22;3136;48.788;9.772;2023-06-01T16:07:45;26.40;17.50
6206;DHT22;3136;48.788;9.772;2023-06-01T16:10:10;26.40;18.30
6206;DHT22;3136;48.788;9.772;2023-06-01T16:12:38;26.30;17.60
6206;DHT22;3136;48.788;9.772;2023-06-01T16:15:04;26.20;25.90
6206;DHT22;3136;48.788;9.772;2023-06-01T16:17:30;26.20;18.80
6206;DHT22;3136;48.788;9.772;2023-06-01T16:19:56;26.10;17.80
6206;DHT22;3136;48.788;9.772;2023-06-01T16:22:21;26.10;18.80
6206;DHT22;3136;48.788;9.772;2023-06-01T16:24:47;26.10;18.90
6206;DHT22;3136;48.788;9.772;2023-06-01T16:27:13;26.20;19.40
6206;DHT22;3136;48.788;9.772;2023-06-01T16:29:39;26.10;18.40
6206;DHT22;3136;48.788;9.772;2023-06-01T16:32:04;26.10;18.40
6206;DHT22;3136;48.788;9.772;2023-06-01T16:34:30;26.00;18.90
6206;DHT22;3136;48.788;9.772;2023-06-01T16:36:55;25.90;18.80
6206;DHT22;3136;48.788;9.772;2023-06-01T16:39:21;25.90;19.60
6206;DHT22;3136;48.788;9.772;2023-06-01T16:41:47;25.80;18.60